SBGO

Details ICAO SBGO (GYN)
Name Goiania, Santa Genoveva
Region Brazil
Timezone America/Sao_Paulo (UTC-3.0)
Plans Departing 149
Arriving 124
Stats Elevation 2,451 ft / 747 m (AMSL)
Location -16.631900° -49.221100°
Runways 1
Magnetic Variation 21.088° W
Sunrise 2018-10-19 08:47:23 UTC / 2018-10-19 05:47:23 Local
Sunset 2018-10-19 21:18:36 UTC / 2018-10-19 18:18:36 Local
Advertisement - Login to hide

Runways

ID Width Length Bearing (true/mag) Surface Threshold Overrun Markings Lighting
14 148 ft / 45 m 8,208 ft / 2,502 m 120.42° / 141.50° ASPHALT 715 ft / 218 m 0 ft / 0 m PREC-APP CENTERLINE EDGE THRESHOLD REIL-OMNI
32 148 ft / 45 m 8,208 ft / 2,502 m 300.41° / 321.50° ASPHALT 0 ft / 0 m 0 ft / 0 m PREC-APP CENTERLINE EDGE THRESHOLD REIL-OMNI

Map

Weather


0- 5 10 15 20 25 30 35+ Temperature / °C

Clouds and Precipitation
Forecast for 2018-10-19 12:00 UTC. Updated 2 hours ago

Ground ~20,000 ft ~40,000 ft Winds

METAR

SBGO 191115Z 09002KT 9999 -RA FEW006 OVC100 22/20 Q1017

TAF

TAF TAF SBGO 190200Z 1906/2006 01005KT CAVOK TN22/1908Z TX32/1917Z PROB30 1906/1910 TS FEW030 FEW035CB BECMG 1912/1914 7000 SCT040 BECMG 1918/1920 35008KT PROB30 1919/1923 TS SCT040 FEW045CB BECMG 2000/2002 11005KT CAVOK RMK PDE

Frequencies

Tower 118.70 MHz Goiania Tower
Recorded 127.67 MHz Goiania ATIS
Approach 133.00 MHz Anapolis Approach
Ground 121.70 MHz Goiania Ground
Warning: Do not use this data for real-world aviation or navigation. No guarantee of current accuracy is given.